Time;durP1;ratioP1;P1;durP2;ratioP2;P2;SDS_P1;SDS_P2;PMS_P1;PMS_P2;Temp;Humidity;BMP_temperature;BMP_pressure;BME280_temperature;BME280_humidity;BME280_pressure;Samples;Min_cycle;Max_cycle;Signal;HPM_P1;HPM_P2
2021/03/21 00:00:11;;;;;;;12.43;11.23;;;1.10;99.90;;;2.02;65.54;98607.44;5196279;28;20286;-60
2021/03/21 00:02:43;;;;;;;11.50;10.40;;;1.10;99.90;;;2.00;65.78;98603.84;5187594;28;20592;-57
2021/03/21 00:05:16;;;;;;;10.80;9.80;;;1.10;99.90;;;2.03;65.66;98604.16;5204751;28;20198;-60
2021/03/21 00:07:54;;;;;;;8.10;7.43;;;1.10;99.90;;;2.02;65.39;98605.81;5204452;28;20226;-58
2021/03/21 00:10:29;;;;;;;7.80;7.27;;;1.10;99.90;;;1.99;64.67;98604.59;5205891;28;20204;-60
2021/03/21 00:13:02;;;;;;;9.70;8.70;;;1.10;99.90;;;1.94;64.15;98593.16;5209212;28;20288;-58
2021/03/21 00:15:35;;;;;;;8.83;8.10;;;1.10;99.90;;;1.96;64.62;98599.25;5208851;28;20728;-61
2021/03/21 00:18:08;;;;;;;8.30;7.70;;;1.10;99.90;;;2.00;64.43;98592.16;5203914;28;20217;-58
2021/03/21 00:20:41;;;;;;;9.20;8.40;;;1.20;99.90;;;1.94;63.92;98593.16;5188253;28;20210;-58
2021/03/21 00:23:13;;;;;;;8.80;7.93;;;1.20;99.90;;;1.91;63.65;98588.69;5202691;28;20405;-58
2021/03/21 00:25:46;;;;;;;9.67;8.77;;;1.10;99.90;;;1.94;63.17;98581.44;5197356;28;20201;-58
2021/03/21 00:28:21;;;;;;;8.87;8.17;;;1.10;99.90;;;1.88;62.60;98578.28;5187864;28;20218;-57
2021/03/21 00:30:56;;;;;;;9.27;8.50;;;1.10;99.90;;;1.82;62.77;98581.84;5200322;28;20284;-58
2021/03/21 00:33:33;;;;;;;9.03;8.23;;;1.00;99.90;;;1.90;62.83;98576.84;5208852;28;20639;-57
2021/03/21 00:36:09;;;;;;;9.90;9.10;;;1.10;99.90;;;1.88;62.55;98577.41;5207277;28;20284;-58
2021/03/21 00:38:44;;;;;;;8.70;8.00;;;1.10;99.90;;;1.90;63.42;98573.44;5208340;28;20231;-56
2021/03/21 00:41:20;;;;;;;9.17;8.27;;;1.10;99.90;;;1.91;63.26;98578.59;5199381;28;20299;-60
2021/03/21 00:43:55;;;;;;;9.20;8.40;;;1.10;99.90;;;1.91;63.41;98577.72;5188249;28;20282;-60
2021/03/21 00:46:28;;;;;;;8.97;8.27;;;1.10;99.90;;;1.93;63.93;98571.22;5205057;28;20198;-56
2021/03/21 00:49:00;;;;;;;8.77;8.17;;;1.20;99.90;;;1.94;63.24;98573.00;5208137;28;20292;-58
2021/03/21 00:51:32;;;;;;;9.30;8.60;;;1.10;99.90;;;2.05;63.56;98571.56;5207921;28;20198;-58
2021/03/21 00:54:05;;;;;;;9.10;8.30;;;1.20;99.90;;;2.03;64.12;98566.34;5207853;28;20585;-59
2021/03/21 00:56:39;;;;;;;8.93;8.23;;;1.20;99.90;;;2.05;64.18;98557.31;5204440;28;20198;-56
2021/03/21 00:59:12;;;;;;;9.80;9.07;;;1.20;99.90;;;2.03;63.62;98553.75;5203539;28;20213;-58
2021/03/21 01:01:44;;;;;;;10.30;9.40;;;1.20;99.90;;;2.02;63.66;98557.00;5207047;28;20195;-55
2021/03/21 01:04:17;;;;;;;8.63;8.03;;;1.20;99.90;;;2.02;63.59;98551.97;5208108;28;20205;-58
2021/03/21 01:06:49;;;;;;;10.03;9.23;;;1.20;99.90;;;2.03;64.27;98549.63;5206199;28;20199;-58
2021/03/21 01:09:21;;;;;;;9.57;8.77;;;1.20;99.90;;;2.09;63.96;98544.31;5207320;28;20226;-58
2021/03/21 01:11:53;;;;;;;8.90;8.17;;;1.20;99.90;;;2.11;63.81;98545.31;5190229;28;20206;-58
2021/03/21 01:14:25;;;;;;;8.83;8.03;;;1.20;99.90;;;2.07;64.51;98545.78;5199230;28;20207;-58
2021/03/21 01:16:58;;;;;;;9.40;8.47;;;1.20;99.90;;;2.03;64.36;98547.09;5207633;28;20198;-58
2021/03/21 01:19:30;;;;;;;9.87;9.10;;;1.10;99.90;;;1.96;64.16;98539.63;5206285;28;20216;-60
2021/03/21 01:22:03;;;;;;;8.57;7.97;;;1.10;99.90;;;2.01;64.71;98541.00;5187284;28;20215;-58
2021/03/21 01:24:35;;;;;;;9.47;8.77;;;1.10;99.90;;;2.03;64.47;98528.53;5199485;28;20203;-57
2021/03/21 01:27:08;;;;;;;9.27;8.47;;;1.10;99.90;;;2.07;65.41;98534.81;5186672;28;20203;-58
2021/03/21 01:29:40;;;;;;;9.20;8.50;;;1.20;99.90;;;2.06;65.19;98531.41;5191134;28;20799;-59
2021/03/21 01:32:13;;;;;;;8.60;7.97;;;1.20;99.90;;;2.06;65.46;98528.88;5206011;28;20205;-59
2021/03/21 01:34:46;;;;;;;9.27;8.43;;;1.20;99.90;;;1.99;65.03;98521.41;5190178;28;20747;-57
2021/03/21 01:37:18;;;;;;;8.20;7.60;;;1.20;99.90;;;1.99;65.01;98518.91;5186825;28;20207;-58
2021/03/21 01:39:50;;;;;;;8.30;7.60;;;1.10;99.90;;;2.04;65.06;98517.72;5193855;28;20221;-56
2021/03/21 01:42:22;;;;;;;8.90;7.93;;;1.20;99.90;;;2.07;65.67;98514.63;5206205;28;20207;-56
2021/03/21 01:44:54;;;;;;;9.10;8.40;;;1.30;99.90;;;2.06;65.52;98508.72;5205739;28;20582;-56
2021/03/21 01:47:38;;;;;;;9.93;9.03;;;1.20;99.90;;;2.00;65.36;98516.53;5187662;28;20710;-58
2021/03/21 01:50:35;;;;;;;10.47;9.47;;;1.10;99.90;;;2.01;65.11;98505.72;5186848;28;20225;-60
2021/03/21 01:53:07;;;;;;;9.70;8.90;;;1.20;99.90;;;2.06;66.06;98506.19;5187926;28;20227;-59
2021/03/21 01:55:40;;;;;;;10.87;9.80;;;1.20;99.90;;;2.07;65.89;98495.34;5205173;28;20216;-56
2021/03/21 01:58:23;;;;;;;9.47;8.67;;;1.20;99.90;;;2.12;64.98;98496.72;5197796;28;20302;-56
2021/03/21 02:00:58;;;;;;;10.27;9.37;;;1.20;99.90;;;2.16;65.38;98496.25;5188122;28;20274;-56
2021/03/21 02:03:31;;;;;;;10.43;9.57;;;1.30;99.90;;;2.23;64.83;98498.66;5205812;28;20649;-57
2021/03/21 02:06:27;;;;;;;9.20;8.40;;;1.30;99.90;;;2.19;66.07;98486.47;5206147;28;20198;-59
2021/03/21 02:09:12;;;;;;;10.20;9.50;;;1.30;99.90;;;2.20;65.84;98489.88;5206436;28;20231;-55
2021/03/21 02:12:03;;;;;;;10.10;9.30;;;1.30;99.90;;;2.19;65.30;98483.06;5198518;28;20198;-56
2021/03/21 02:14:45;;;;;;;9.90;9.10;;;1.20;99.90;;;2.13;65.76;98490.03;5206684;28;20198;-57
2021/03/21 02:17:24;;;;;;;9.77;8.87;;;1.30;99.90;;;2.16;65.29;98486.19;5204148;28;20202;-56
2021/03/21 02:20:29;;;;;;;10.20;9.30;;;1.30;99.90;;;2.20;65.08;98483.22;5206912;28;20289;-57
2021/03/21 02:23:07;;;;;;;9.33;8.53;;;1.40;99.90;;;2.19;65.36;98481.44;5204964;28;20195;-58
2021/03/21 02:26:18;;;;;;;9.20;8.50;;;1.40;99.90;;;2.27;65.39;98482.19;5205558;28;20204;-59
2021/03/21 02:29:34;;;;;;;8.70;8.07;;;1.40;99.90;;;2.33;65.36;98474.34;5206118;28;20226;-57
2021/03/21 02:32:12;;;;;;;8.00;7.40;;;1.40;99.90;;;2.36;65.20;98459.50;5205241;28;20549;-56
2021/03/21 02:34:56;;;;;;;8.40;7.70;;;1.40;99.90;;;2.28;65.32;98462.91;5192698;28;20567;-58
2021/03/21 02:37:37;;;;;;;9.13;8.40;;;1.40;99.90;;;2.20;65.14;98463.06;5192820;28;20208;-56
2021/03/21 02:40:22;;;;;;;8.30;7.70;;;1.30;99.90;;;2.10;65.25;98465.41;5205624;28;20205;-56
2021/03/21 02:43:03;;;;;;;9.00;8.30;;;1.30;99.90;;;2.23;64.92;98452.34;5201739;28;20688;-54
2021/03/21 02:45:41;;;;;;;8.50;7.83;;;1.40;99.90;;;2.22;64.66;98450.59;5185822;28;20201;-58
2021/03/21 02:48:17;;;;;;;8.70;8.00;;;1.40;99.90;;;2.27;64.43;98453.56;5193792;28;20229;-56
2021/03/21 02:50:56;;;;;;;8.60;7.90;;;1.40;99.90;;;2.25;63.70;98449.25;5191845;28;20221;-57
2021/03/21 02:53:34;;;;;;;8.80;8.10;;;1.50;99.90;;;2.30;64.14;98439.63;5186083;28;20278;-56
2021/03/21 02:56:12;;;;;;;9.40;8.67;;;1.40;99.90;;;2.32;64.23;98432.19;5205257;28;20228;-56
2021/03/21 02:59:07;;;;;;;9.00;8.40;;;1.40;99.90;;;2.34;64.34;98436.66;5204839;28;20599;-57
2021/03/21 03:01:46;;;;;;;8.20;7.47;;;1.40;99.90;;;2.35;64.71;98432.53;5205547;28;20203;-56
2021/03/21 03:04:25;;;;;;;9.00;8.30;;;1.40;99.90;;;2.34;64.88;98426.56;5204571;28;20263;-56
2021/03/21 03:07:04;;;;;;;8.40;7.80;;;1.50;99.90;;;2.31;65.31;98427.91;5185380;28;20199;-57
2021/03/21 03:09:44;;;;;;;9.00;8.40;;;1.40;99.90;;;2.24;65.21;98429.81;5204123;28;20225;-55
2021/03/21 03:12:22;;;;;;;9.03;8.33;;;1.40;99.90;;;2.22;65.14;98426.25;5189369;28;20623;-60
2021/03/21 03:14:54;;;;;;;8.40;7.77;;;1.40;99.90;;;2.23;65.38;98428.06;5185597;28;20220;-58
2021/03/21 03:17:38;;;;;;;9.43;8.53;;;1.40;99.90;;;2.33;66.04;98423.91;5184985;28;20205;-58
2021/03/21 03:20:20;;;;;;;8.43;7.83;;;1.40;99.90;;;2.36;65.38;98419.16;5199644;28;20189;-59
2021/03/21 03:22:54;;;;;;;8.87;8.17;;;1.50;99.90;;;2.39;65.64;98421.97;5201044;28;20206;-58
2021/03/21 03:25:31;;;;;;;8.90;8.20;;;1.40;99.90;;;2.34;65.70;98421.50;5204991;28;20194;-59
2021/03/21 03:28:10;;;;;;;9.87;8.97;;;1.40;99.90;;;2.33;65.71;98413.81;5199708;28;20234;-58
2021/03/21 03:30:51;;;;;;;9.10;8.40;;;1.40;99.90;;;2.30;66.38;98404.31;5192021;28;20338;-55
2021/03/21 03:33:24;;;;;;;9.30;8.60;;;1.40;99.90;;;2.35;67.08;98404.78;5205124;28;20205;-58
2021/03/21 03:35:57;;;;;;;8.63;7.87;;;1.40;99.90;;;2.31;66.94;98395.13;5187550;28;20207;-58
2021/03/21 03:38:29;;;;;;;9.10;8.40;;;1.40;99.90;;;2.31;66.90;98396.00;5201016;28;20224;-58
2021/03/21 03:41:08;;;;;;;9.53;8.73;;;1.40;99.90;;;2.35;67.28;98402.25;5204795;28;20195;-58
2021/03/21 03:43:52;;;;;;;9.77;9.07;;;1.40;99.90;;;2.36;67.54;98393.94;5192653;28;20208;-59
2021/03/21 03:46:34;;;;;;;8.90;8.20;;;1.50;99.90;;;2.30;66.66;98394.22;5184888;28;20202;-58
2021/03/21 03:49:23;;;;;;;9.50;8.80;;;1.40;99.90;;;2.32;67.32;98397.81;5185014;28;20322;-59
2021/03/21 03:52:28;;;;;;;9.23;8.63;;;1.40;99.90;;;2.35;66.84;98379.56;5184871;28;20203;-59
2021/03/21 03:55:06;;;;;;;9.07;8.47;;;1.50;99.90;;;2.38;66.70;98377.31;5199165;28;20679;-56
2021/03/21 03:57:46;;;;;;;9.37;8.60;;;1.50;99.90;;;2.42;66.94;98390.38;5204334;28;20224;-56
2021/03/21 04:00:28;;;;;;;9.63;8.73;;;1.40;99.90;;;2.41;67.13;98386.06;5204881;28;20221;-58
2021/03/21 04:03:12;;;;;;;9.43;8.63;;;1.40;99.90;;;2.40;67.54;98390.97;5190941;28;20219;-58
2021/03/21 04:05:50;;;;;;;10.43;9.63;;;1.40;99.90;;;2.39;67.48;98385.03;5184545;28;20268;-56
2021/03/21 04:08:32;;;;;;;9.83;9.03;;;1.40;99.90;;;2.37;67.80;98385.63;5198432;28;20267;-56
2021/03/21 04:11:12;;;;;;;9.23;8.50;;;1.40;99.90;;;2.35;68.13;98392.16;5204369;28;20220;-59
2021/03/21 04:13:51;;;;;;;9.53;8.73;;;1.40;99.90;;;2.37;68.31;98385.63;5202779;28;20196;-58
2021/03/21 04:16:28;;;;;;;10.07;9.27;;;1.40;99.90;;;2.37;68.29;98385.63;5205167;28;20203;-58
2021/03/21 04:19:06;;;;;;;9.80;9.00;;;1.40;99.90;;;2.35;67.73;98392.16;5194197;28;20584;-60
2021/03/21 04:21:46;;;;;;;9.53;8.67;;;1.40;99.90;;;2.38;68.16;98377.31;5184401;28;20205;-56
2021/03/21 04:24:23;;;;;;;9.37;8.47;;;1.40;99.90;;;2.42;68.26;98379.38;5194085;28;20674;-56
2021/03/21 04:27:03;;;;;;;8.63;7.83;;;1.40;99.90;;;2.39;68.34;98379.97;5184502;28;20659;-58
2021/03/21 04:29:42;;;;;;;8.87;8.10;;;1.30;99.90;;;2.35;68.71;98374.50;5185618;28;20282;-56
2021/03/21 04:32:17;;;;;;;9.87;9.17;;;1.40;99.90;;;2.25;68.80;98373.59;5204378;28;20295;-59
2021/03/21 04:34:55;;;;;;;9.13;8.53;;;1.30;99.90;;;2.27;68.50;98382.97;5201388;28;20194;-59
2021/03/21 04:37:29;;;;;;;9.20;8.43;;;1.40;99.90;;;2.25;69.48;98371.06;5184205;28;20299;-58
2021/03/21 04:40:04;;;;;;;9.70;8.90;;;1.40;99.90;;;2.25;69.46;98368.56;5189281;28;20776;-61
2021/03/21 04:42:42;;;;;;;9.30;8.43;;;1.40;99.90;;;2.30;68.65;98365.59;5191083;28;20583;-59
2021/03/21 04:45:19;;;;;;;9.40;8.63;;;1.40;99.90;;;2.31;68.41;98354.75;5184765;28;20277;-57
2021/03/21 04:47:59;;;;;;;9.37;8.70;;;1.40;99.90;;;2.31;68.27;98359.81;5183689;28;20227;-57
2021/03/21 04:50:33;;;;;;;9.40;8.60;;;1.40;99.90;;;2.34;68.18;98350.91;5190362;28;20215;-56
2021/03/21 04:53:18;;;;;;;9.53;8.83;;;1.40;99.90;;;2.34;69.13;98355.06;5199446;28;20650;-56
2021/03/21 04:55:57;;;;;;;9.10;8.30;;;1.40;99.90;;;2.32;68.25;98342.31;5200520;28;20194;-57
2021/03/21 04:58:35;;;;;;;12.20;10.93;;;1.40;99.90;;;2.34;68.81;98344.97;5194900;28;20228;-57
2021/03/21 05:01:12;;;;;;;18.00;15.63;;;1.40;99.90;;;2.35;68.08;98334.16;5197700;28;20647;-59
2021/03/21 05:03:53;;;;;;;14.40;13.10;;;1.40;99.90;;;2.33;67.90;98331.47;5208097;28;20210;-56
2021/03/21 05:06:44;;;;;;;12.77;11.47;;;1.40;99.90;;;2.32;67.44;98317.09;5207584;28;20196;-56
2021/03/21 05:09:23;;;;;;;11.17;10.13;;;1.40;99.90;;;2.29;67.72;98323.44;5223978;23;20546;-57
2021/03/21 05:12:00;;;;;;;9.77;9.03;;;1.40;99.90;;;2.32;67.08;98336.34;5225324;28;20624;-56
2021/03/21 05:14:36;;;;;;;9.53;8.73;;;1.50;99.90;;;2.34;67.39;98337.41;5212951;28;20197;-58
2021/03/21 05:17:20;;;;;;;9.17;8.47;;;1.50;99.90;;;2.35;68.05;98341.72;5203248;28;20284;-58
2021/03/21 05:20:01;;;;;;;11.93;10.73;;;1.60;99.90;;;2.38;68.04;98347.06;5194727;28;20341;-58
2021/03/21 05:22:42;;;;;;;12.13;11.10;;;1.60;99.90;;;2.42;67.85;98350.00;5187739;28;20289;-57
2021/03/21 05:25:23;;;;;;;13.27;11.43;;;1.60;99.90;;;2.40;67.36;98341.38;5193369;28;20781;-58
2021/03/21 05:28:03;;;;;;;12.97;11.53;;;1.60;99.90;;;2.39;66.54;98339.63;5186043;28;20524;-57
2021/03/21 05:30:37;;;;;;;10.90;9.90;;;1.60;99.90;;;2.43;66.20;98345.84;5179903;28;20272;-53
2021/03/21 05:33:09;;;;;;;10.53;9.63;;;1.60;99.90;;;2.47;66.29;98351.34;5185408;28;20201;-56
2021/03/21 05:35:42;;;;;;;10.77;9.77;;;1.60;99.90;;;2.46;65.68;98353.69;5198862;28;20236;-58
2021/03/21 05:38:29;;;;;;;10.50;9.60;;;1.60;99.90;;;2.51;66.41;98357.56;5191574;28;20234;-56
2021/03/21 05:41:52;;;;;;;10.67;9.77;;;1.60;99.90;;;2.58;67.66;98364.09;5173611;28;20206;-57
2021/03/21 05:45:04;;;;;;;10.63;9.63;;;1.50;99.90;;;2.54;67.70;98352.81;5170754;28;20297;-57
2021/03/21 05:47:55;;;;;;;9.43;8.67;;;1.60;99.90;;;2.54;68.61;98351.94;5154046;28;20202;-55
2021/03/21 05:51:16;;;;;;;9.80;8.90;;;1.50;99.90;;;2.55;68.90;98349.56;5184538;28;20216;-57
2021/03/21 05:54:50;;;;;;;9.00;8.30;;;1.60;99.90;;;2.63;67.85;98343.63;5192891;28;20729;-57
2021/03/21 05:58:21;;;;;;;9.40;8.70;;;1.60;99.90;;;2.60;67.93;98340.78;5166579;28;20208;-57
2021/03/21 06:01:46;;;;;;;9.43;8.70;;;1.60;99.90;;;2.58;67.79;98343.94;5170120;28;20402;-56
2021/03/21 06:05:24;;;;;;;8.67;7.97;;;1.60;99.90;;;2.54;68.49;98346.88;5173001;28;20199;-58
2021/03/21 06:08:43;;;;;;;10.53;9.73;;;1.60;99.90;;;2.47;68.65;98332.81;5130302;28;20244;-55
2021/03/21 06:11:48;;;;;;;10.17;9.37;;;1.60;99.90;;;2.50;68.90;98320.47;5133543;28;20225;-57
2021/03/21 06:15:31;;;;;;;10.20;9.40;;;1.60;99.90;;;2.52;68.05;98320.59;5197144;28;20286;-57
2021/03/21 06:18:18;;;;;;;9.60;8.67;;;1.70;99.90;;;2.59;67.93;98306.22;5190049;28;20218;-56
2021/03/21 06:21:15;;;;;;;10.23;9.43;;;1.80;99.90;;;2.65;67.43;98309.31;5166561;28;20200;-57
2021/03/21 06:24:18;;;;;;;10.63;9.70;;;1.80;99.90;;;2.67;67.84;98315.41;5200304;28;20211;-58
2021/03/21 06:27:05;;;;;;;10.20;9.27;;;1.80;99.90;;;2.69;67.78;98321.50;5194086;28;20252;-55
2021/03/21 06:29:59;;;;;;;10.47;9.30;;;1.80;99.90;;;2.70;66.95;98305.59;5188925;28;20230;-57
2021/03/21 06:33:12;;;;;;;10.60;9.77;;;1.90;99.90;;;2.80;66.62;98303.91;5180317;28;20200;-57
2021/03/21 06:36:07;;;;;;;10.10;9.30;;;1.90;99.90;;;2.94;65.11;98303.56;5180056;28;20200;-58
2021/03/21 06:39:13;;;;;;;10.50;9.50;;;1.90;99.90;;;2.92;65.91;98311.03;5192226;28;20236;-55
2021/03/21 06:42:38;;;;;;;8.93;8.13;;;1.90;99.90;;;2.92;65.77;98307.63;5202528;28;20198;-58
2021/03/21 06:45:44;;;;;;;9.67;8.87;;;2.00;99.90;;;2.95;65.82;98302.84;5178053;28;20203;-56
2021/03/21 06:48:48;;;;;;;9.70;8.80;;;2.10;99.90;;;3.00;64.68;98314.25;5183773;28;20217;-57
2021/03/21 06:51:52;;;;;;;10.03;9.23;;;2.10;99.90;;;3.05;64.81;98314.69;5192378;28;20220;-57
2021/03/21 06:54:34;;;;;;;11.27;10.20;;;2.10;99.90;;;3.13;64.03;98316.28;5191701;28;20210;-56
2021/03/21 06:58:08;;;;;;;12.40;11.27;;;2.10;99.90;;;3.15;65.08;98320.75;5192590;28;20209;-57
2021/03/21 07:01:10;;;;;;;10.73;9.73;;;2.10;99.90;;;3.06;64.30;98319.91;5183026;28;20191;-58
2021/03/21 07:04:45;;;;;;;10.57;9.57;;;2.20;99.90;;;3.20;63.32;98313.56;5171808;28;20198;-57
2021/03/21 07:08:02;;;;;;;11.33;10.23;;;2.20;99.90;;;3.20;63.79;98308.53;5164948;28;20213;-58
2021/03/21 07:11:38;;;;;;;9.63;8.83;;;2.30;99.90;;;3.25;63.45;98307.31;5191648;28;20310;-57
2021/03/21 07:14:52;;;;;;;10.33;9.33;;;2.30;99.90;;;3.37;62.81;98303.38;5118713;28;20663;-57
2021/03/21 07:18:09;;;;;;;10.83;9.93;;;2.30;99.90;;;3.37;62.97;98310.97;5191825;28;20209;-58
2021/03/21 07:21:15;;;;;;;9.90;9.00;;;2.30;99.90;;;3.37;63.60;98302.50;5188481;28;20190;-58
2021/03/21 07:24:28;;;;;;;9.47;8.60;;;2.30;99.90;;;3.47;63.13;98304.25;5193314;28;20196;-58
2021/03/21 07:27:32;;;;;;;9.27;8.57;;;2.30;99.90;;;3.43;63.06;98299.63;5185825;28;20205;-57
2021/03/21 07:30:10;;;;;;;9.20;8.33;;;2.40;99.90;;;3.45;62.13;98300.69;5181757;28;20257;-58
2021/03/21 07:33:31;;;;;;;9.03;8.33;;;2.40;99.90;;;3.46;62.47;98303.31;5192233;28;20682;-57
2021/03/21 07:36:19;;;;;;;9.50;8.63;;;2.50;99.90;;;3.47;62.71;98305.13;5168454;28;20202;-59
2021/03/21 07:39:25;;;;;;;10.87;9.87;;;2.40;99.90;;;3.38;63.12;98314.41;5171267;28;20431;-58
2021/03/21 07:42:25;;;;;;;10.37;9.37;;;2.40;99.90;;;3.41;62.55;98308.75;5164310;28;20223;-58
2021/03/21 07:45:24;;;;;;;9.80;9.00;;;2.40;99.90;;;3.51;60.98;98298.72;5168619;28;20209;-58
2021/03/21 07:48:36;;;;;;;10.30;9.30;;;2.50;99.90;;;3.51;59.96;98294.53;5181453;28;20243;-58
2021/03/21 07:51:24;;;;;;;10.07;9.07;;;2.50;99.90;;;3.51;59.03;98292.00;5174237;28;20231;-56
2021/03/21 07:54:07;;;;;;;10.30;9.30;;;2.60;99.90;;;3.56;60.05;98298.38;5180652;28;20231;-58
2021/03/21 07:56:45;;;;;;;10.37;9.50;;;2.60;99.90;;;3.63;59.39;98288.81;5170400;28;20207;-58
2021/03/21 07:59:22;;;;;;;9.83;8.83;;;2.60;99.90;;;3.71;59.17;98295.47;5184329;28;20264;-59
2021/03/21 08:01:54;;;;;;;10.70;9.90;;;2.70;99.90;;;3.73;59.07;98282.22;5193765;28;20202;-59
2021/03/21 08:04:30;;;;;;;10.37;9.47;;;2.70;99.90;;;3.77;58.84;98283.38;5169517;28;20207;-59
2021/03/21 08:07:16;;;;;;;10.50;9.60;;;2.70;99.90;;;3.75;58.87;98272.22;5165330;28;20199;-57
2021/03/21 08:09:49;;;;;;;10.07;9.10;;;2.80;99.90;;;3.79;59.41;98270.13;5171388;28;20248;-55
2021/03/21 08:12:35;;;;;;;9.67;8.77;;;2.80;99.90;;;3.84;59.63;98270.53;5172417;28;20201;-56
2021/03/21 08:15:18;;;;;;;9.83;8.93;;;2.80;99.90;;;3.91;59.38;98272.84;5164207;28;20237;-56
2021/03/21 08:17:56;;;;;;;10.97;9.87;;;2.80;99.90;;;3.91;59.14;98270.31;5176507;28;20214;-57
2021/03/21 08:20:33;;;;;;;9.97;9.17;;;2.80;99.90;;;3.97;58.95;98258.22;5181601;28;20221;-54
2021/03/21 08:23:16;;;;;;;9.87;8.97;;;2.90;99.90;;;3.96;58.65;98261.50;5182254;28;20207;-57
2021/03/21 08:25:49;;;;;;;10.20;9.23;;;2.80;99.90;;;3.90;59.05;98263.50;5169384;28;20295;-58
2021/03/21 08:28:24;;;;;;;10.53;9.63;;;2.90;99.90;;;3.95;58.85;98264.81;5188641;28;20672;-58
2021/03/21 08:30:59;;;;;;;9.50;8.70;;;3.00;99.90;;;3.98;59.13;98252.44;5180619;28;20223;-56
2021/03/21 08:33:34;;;;;;;10.37;9.43;;;3.00;99.90;;;4.23;57.92;98245.34;5169478;28;20203;-56
2021/03/21 08:36:16;;;;;;;10.20;9.30;;;3.10;99.90;;;4.38;57.79;98240.75;5168911;28;20212;-57
2021/03/21 08:39:03;;;;;;;9.90;9.07;;;3.20;99.90;;;4.41;57.00;98235.06;5167801;28;20311;-58
2021/03/21 08:41:49;;;;;;;9.87;8.90;;;3.30;99.90;;;4.76;56.00;98225.44;5179560;28;20195;-59
2021/03/21 08:44:33;;;;;;;10.07;9.23;;;3.50;99.90;;;4.96;54.36;98214.44;5174170;28;20207;-55
2021/03/21 08:47:15;;;;;;;9.43;8.63;;;3.60;99.90;;;5.04;53.88;98199.91;5172176;28;20232;-58
2021/03/21 08:49:51;;;;;;;9.13;8.33;;;3.70;99.90;;;5.15;53.09;98215.25;5176250;28;20233;-58
2021/03/21 08:52:30;;;;;;;8.97;8.17;;;3.80;99.90;;;5.17;52.95;98210.28;5184535;28;20207;-57
2021/03/21 08:55:04;;;;;;;9.83;8.70;;;3.80;99.90;;;5.11;52.32;98210.66;5184355;28;20293;-57
2021/03/21 08:57:38;;;;;;;9.23;8.33;;;3.80;99.90;;;5.01;52.71;98220.81;5185751;28;20200;-57
2021/03/21 09:00:21;;;;;;;9.37;8.47;;;3.70;99.90;;;4.93;53.33;98226.88;5184938;28;20742;-56
2021/03/21 09:02:54;;;;;;;8.77;8.07;;;3.70;99.90;;;4.99;52.72;98223.97;5187992;28;20281;-57
2021/03/21 09:05:28;;;;;;;9.00;8.20;;;3.70;99.90;;;4.96;53.60;98222.94;5186303;28;20550;-58
2021/03/21 09:08:07;;;;;;;8.90;8.20;;;3.70;99.90;;;4.96;52.42;98220.41;5185557;28;20258;-59
2021/03/21 09:10:53;;;;;;;9.00;8.13;;;3.70;99.90;;;4.92;53.28;98237.72;5184930;28;20221;-57
2021/03/21 09:13:27;;;;;;;9.20;8.33;;;3.70;99.90;;;4.93;54.17;98231.94;5174974;28;20200;-60
2021/03/21 09:16:09;;;;;;;10.37;9.47;;;3.70;99.90;;;4.93;53.71;98230.28;5184151;28;20206;-59
2021/03/21 09:18:45;;;;;;;9.00;8.20;;;3.70;99.90;;;4.96;53.52;98234.72;5166600;28;20567;-59
2021/03/21 09:21:25;;;;;;;8.83;8.03;;;3.70;99.90;;;4.97;53.24;98232.28;5181373;28;20293;-59
2021/03/21 09:24:09;;;;;;;9.30;8.50;;;3.80;99.90;;;4.97;53.75;98228.88;5172590;28;20214;-60
2021/03/21 09:26:45;;;;;;;9.43;8.63;;;3.70;99.90;;;4.99;53.89;98223.97;5178586;28;20657;-60
2021/03/21 09:29:38;;;;;;;9.10;8.30;;;3.70;99.90;;;4.94;53.73;98226.97;5185679;28;20243;-60
2021/03/21 09:32:24;;;;;;;9.60;8.70;;;3.70;99.90;;;5.01;54.10;98232.56;5166654;28;20574;-58
2021/03/21 09:35:31;;;;;;;9.13;8.23;;;3.70;99.90;;;4.91;54.55;98236.84;5171173;28;20202;-59
2021/03/21 09:38:12;;;;;;;9.37;8.53;;;3.80;99.90;;;4.97;54.75;98239.00;5179382;28;20248;-59
2021/03/21 09:40:50;;;;;;;10.27;8.77;;;3.80;99.90;;;5.11;54.36;98242.72;5183139;28;20191;-59
2021/03/21 09:43:30;;;;;;;9.20;8.30;;;3.90;99.90;;;5.13;54.45;98238.66;5170017;28;20202;-60
2021/03/21 09:46:33;;;;;;;9.80;8.80;;;3.90;99.90;;;5.06;55.30;98236.38;5184774;28;20570;-60
2021/03/21 09:49:14;;;;;;;10.37;9.37;;;3.90;99.90;;;5.09;55.44;98234.97;5178087;28;20221;-59
2021/03/21 09:51:52;;;;;;;9.77;8.97;;;3.90;99.90;;;5.38;53.72;98232.34;5183588;28;20237;-59
2021/03/21 09:54:36;;;;;;;9.70;8.70;;;4.20;99.90;;;5.33;54.15;98233.63;5185290;28;20206;-60
2021/03/21 09:57:36;;;;;;;9.47;8.63;;;4.20;99.90;;;5.45;53.81;98237.94;5186068;28;20233;-59
2021/03/21 10:00:15;;;;;;;10.17;9.27;;;4.30;99.90;;;5.63;53.23;98231.81;5184320;28;20665;-56
2021/03/21 10:02:50;;;;;;;9.70;8.90;;;4.30;99.90;;;5.59;53.08;98228.16;5165987;28;20210;-59
2021/03/21 10:05:32;;;;;;;8.50;7.80;;;4.40;99.90;;;5.61;53.35;98225.75;5181719;28;20257;-60
2021/03/21 10:08:14;;;;;;;9.03;8.23;;;4.50;99.90;;;5.78;53.34;98222.94;5188804;28;20311;-59
2021/03/21 10:10:53;;;;;;;9.73;8.83;;;4.60;99.90;;;5.86;52.09;98218.47;5183693;28;20571;-58
2021/03/21 10:13:33;;;;;;;9.37;8.40;;;4.70;99.90;;;5.90;52.15;98217.09;5184171;28;20686;-59
2021/03/21 10:16:33;;;;;;;9.80;8.90;;;4.70;99.90;;;6.08;51.94;98221.13;5184194;28;20209;-60
2021/03/21 10:19:08;;;;;;;9.33;8.43;;;4.70;99.90;;;6.04;51.87;98216.59;5173686;28;20310;-60
2021/03/21 10:21:42;;;;;;;8.57;7.87;;;4.70;99.90;;;6.21;52.14;98208.66;5165904;28;20194;-59
2021/03/21 10:24:35;;;;;;;8.43;7.63;;;4.90;99.90;;;6.24;51.77;98208.91;5165283;28;20221;-60
2021/03/21 10:27:40;;;;;;;9.17;8.37;;;5.00;99.70;;;6.29;50.34;98212.66;5164544;28;20204;-60
2021/03/21 10:30:24;;;;;;;8.80;8.00;;;5.10;99.20;;;6.24;51.21;98220.72;5164098;28;20230;-59
2021/03/21 10:33:37;;;;;;;9.10;8.30;;;4.90;99.40;;;6.09;51.85;98217.81;5175106;28;20202;-58
2021/03/21 10:36:29;;;;;;;8.77;8.07;;;4.90;99.60;;;6.24;51.57;98208.03;5164254;28;20210;-58
2021/03/21 10:39:03;;;;;;;8.93;8.13;;;5.10;99.40;;;6.31;50.96;98208.59;5177212;28;20224;-58
2021/03/21 10:41:55;;;;;;;9.57;8.73;;;5.10;99.50;;;6.36;51.94;98205.56;5171878;28;20231;-58
2021/03/21 10:44:58;;;;;;;8.90;7.97;;;5.10;99.80;;;6.56;50.41;98205.47;5184370;28;20202;-54
2021/03/21 10:47:49;;;;;;;8.67;7.97;;;5.10;99.30;;;6.56;50.55;98200.38;5180460;28;20280;-58
2021/03/21 10:51:00;;;;;;;8.17;7.57;;;5.30;99.00;;;6.57;51.19;98197.06;5190011;28;20215;-58
2021/03/21 10:53:35;;;;;;;9.37;8.47;;;5.30;99.30;;;6.55;50.65;98196.06;5185663;28;20226;-57
2021/03/21 10:56:13;;;;;;;9.00;8.20;;;5.30;99.30;;;6.73;50.44;98189.88;5179538;28;20202;-56
2021/03/21 10:59:21;;;;;;;8.67;7.97;;;5.30;99.40;;;6.77;50.52;98193.53;5182704;28;20668;-57
2021/03/21 11:02:22;;;;;;;8.67;7.80;;;5.50;99.30;;;6.83;49.99;98185.50;5171939;28;20273;-58
2021/03/21 11:05:06;;;;;;;8.53;7.73;;;5.50;98.90;;;6.74;51.23;98184.03;5176545;28;20222;-53
2021/03/21 11:07:38;;;;;;;8.40;7.70;;;5.50;99.30;;;6.79;52.04;98180.97;5182803;28;20203;-55
2021/03/21 11:10:14;;;;;;;9.10;8.30;;;5.60;99.60;;;6.76;51.96;98177.41;5177129;28;20222;-56
2021/03/21 11:12:54;;;;;;;9.00;8.20;;;5.60;99.80;;;6.85;51.98;98172.16;5164368;28;20203;-58
2021/03/21 11:15:39;;;;;;;9.30;8.50;;;5.70;99.80;;;6.89;52.80;98170.72;5182587;28;20200;-57
2021/03/21 11:18:24;;;;;;;9.03;8.17;;;5.80;99.90;;;6.88;54.01;98171.50;5194768;28;20301;-58
2021/03/21 11:21:07;;;;;;;9.47;8.60;;;5.80;99.90;;;6.84;55.77;98169.47;5194797;28;20674;-58
2021/03/21 11:23:46;;;;;;;9.67;8.77;;;5.80;99.90;;;6.47;58.46;98166.66;5201542;28;20202;-58
2021/03/21 11:26:22;;;;;;;10.20;9.30;;;5.60;99.90;;;6.57;59.57;98163.19;5189029;28;20678;-56
2021/03/21 11:29:11;;;;;;;9.67;8.77;;;5.50;99.90;;;6.72;59.19;98167.81;5194417;28;20709;-57
2021/03/21 11:31:47;;;;;;;10.03;9.03;;;5.60;99.90;;;6.61;59.37;98170.25;5163784;28;20226;-58
2021/03/21 11:34:24;;;;;;;9.60;8.80;;;5.50;99.90;;;6.64;60.25;98161.25;5192962;28;20202;-57
2021/03/21 11:37:03;;;;;;;9.47;8.57;;;5.60;99.90;;;6.90;59.27;98168.31;5199927;28;20197;-57
2021/03/21 11:39:39;;;;;;;9.00;8.10;;;5.60;99.90;;;6.69;59.43;98164.13;5184337;28;20224;-58
2021/03/21 11:42:24;;;;;;;9.63;8.83;;;5.70;99.90;;;6.81;59.11;98174.31;5182246;28;20250;-57
2021/03/21 11:45:23;;;;;;;9.03;8.13;;;5.60;99.90;;;6.83;58.91;98165.19;5180402;28;20685;-57